Time;durP1;ratioP1;P1;durP2;ratioP2;P2;SDS_P1;SDS_P2;PMS_P1;PMS_P2;Temp;Humidity;BMP_temperature;BMP_pressure;BME280_temperature;BME280_humidity;BME280_pressure;Samples;Min_cycle;Max_cycle;Signal;HPM_P1;HPM_P2
2022/10/13 00:00:41;;;;;;;14.75;9.20;;;10.40;99.90;;;;;;5053016;28;20052;-80
2022/10/13 00:03:08;;;;;;;18.08;10.63;;;10.50;99.90;;;;;;5052988;28;20036;-78
2022/10/13 00:05:34;;;;;;;14.20;10.52;;;10.40;99.90;;;;;;5052785;28;20051;-79
2022/10/13 00:08:00;;;;;;;10.50;8.07;;;10.40;99.90;;;;;;5053260;28;20045;-78
2022/10/13 00:10:26;;;;;;;15.40;9.65;;;10.50;99.90;;;;;;5052788;28;20045;-78
2022/10/13 00:12:52;;;;;;;17.30;10.27;;;10.50;99.90;;;;;;5053445;28;20075;-79
2022/10/13 00:15:19;;;;;;;10.73;8.93;;;10.50;99.90;;;;;;5053189;28;20041;-78
2022/10/13 00:17:44;;;;;;;13.60;9.20;;;10.50;99.90;;;;;;5052236;28;20041;-78
2022/10/13 00:20:11;;;;;;;17.45;8.63;;;10.50;99.90;;;;;;5052666;28;20041;-79
2022/10/13 00:22:36;;;;;;;15.52;8.80;;;10.50;99.90;;;;;;5053072;28;20106;-78
2022/10/13 00:25:03;;;;;;;12.75;8.23;;;10.50;99.90;;;;;;5052347;28;20452;-79
2022/10/13 00:27:28;;;;;;;11.18;8.88;;;10.50;99.90;;;;;;5052597;28;20037;-78
2022/10/13 00:29:54;;;;;;;13.50;9.25;;;10.50;99.90;;;;;;5051878;28;20060;-79
2022/10/13 00:32:20;;;;;;;10.40;8.10;;;10.50;99.90;;;;;;5052444;28;20056;-78
2022/10/13 00:34:45;;;;;;;15.02;9.07;;;10.50;99.90;;;;;;5052758;28;20443;-78
2022/10/13 00:37:11;;;;;;;20.90;10.20;;;10.50;99.90;;;;;;5052892;28;20467;-78
2022/10/13 00:39:37;;;;;;;14.55;9.32;;;10.50;99.90;;;;;;5052221;28;20049;-79
2022/10/13 00:42:03;;;;;;;15.27;8.60;;;10.50;99.90;;;;;;5052361;28;20056;-79
2022/10/13 00:44:56;;;;;;;14.80;10.38;;;10.50;99.90;;;;;;5052104;28;20041;-78
2022/10/13 00:47:23;;;;;;;;;;;10.50;99.90;;;;;;5053038;28;20056;-78
2022/10/13 00:49:49;;;;;;;16.38;9.38;;;10.50;99.90;;;;;;5052312;28;19920;-79
2022/10/13 00:52:18;;;;;;;13.43;8.82;;;10.50;99.90;;;;;;5051966;28;20060;-78
2022/10/13 00:54:45;;;;;;;17.92;10.13;;;10.50;99.90;;;;;;5051439;28;20049;-78
2022/10/13 00:57:11;;;;;;;11.18;9.50;;;10.50;99.90;;;;;;5051735;28;20400;-78
2022/10/13 00:59:39;;;;;;;14.30;9.50;;;10.50;99.90;;;;;;5052430;28;20111;-79
2022/10/13 01:02:05;;;;;;;15.68;9.68;;;10.50;99.90;;;;;;5052174;28;20053;-78
2022/10/13 01:04:36;;;;;;;11.00;8.00;;;10.50;99.90;;;;;;5052088;28;20045;-78
2022/10/13 01:07:03;;;;;;;16.88;11.20;;;10.50;99.90;;;;;;5052675;28;20045;-79
2022/10/13 01:09:41;;;;;;;14.65;9.80;;;10.50;99.90;;;;;;5052115;28;20496;-78
2022/10/13 01:12:15;;;;;;;17.50;10.00;;;10.50;99.90;;;;;;5051525;28;20444;-79
2022/10/13 01:14:54;;;;;;;14.52;9.32;;;10.50;99.90;;;;;;5052159;28;20056;-79
2022/10/13 01:17:35;;;;;;;12.73;8.20;;;11.00;99.90;;;;;;5053008;28;20499;-78
2022/10/13 01:20:08;;;;;;;13.68;7.28;;;10.50;99.90;;;;;;5052932;28;20049;-79
2022/10/13 01:22:40;;;;;;;17.30;10.38;;;10.60;99.90;;;;;;5052050;28;20055;-79
2022/10/13 01:25:42;;;;;;;14.20;9.88;;;10.50;99.90;;;;;;5051862;28;20470;-78
2022/10/13 01:28:36;;;;;;;14.93;9.80;;;10.60;99.90;;;;;;5051578;28;20103;-79
2022/10/13 01:31:20;;;;;;;9.63;7.63;;;10.60;99.90;;;;;;5051667;28;20048;-79
2022/10/13 01:33:55;;;;;;;17.35;10.73;;;10.60;99.90;;;;;;5052337;28;20351;-78
2022/10/13 01:36:29;;;;;;;16.70;10.43;;;10.60;99.90;;;;;;5050919;28;20106;-79
2022/10/13 01:39:30;;;;;;;11.43;8.80;;;10.60;99.90;;;;;;5052098;28;20418;-78
2022/10/13 01:42:09;;;;;;;17.20;9.07;;;10.60;99.90;;;;;;5051986;28;20380;-78
2022/10/13 01:44:39;;;;;;;13.30;9.60;;;10.60;99.90;;;;;;5051919;28;20053;-79
2022/10/13 01:47:07;;;;;;;11.75;8.38;;;10.60;99.90;;;;;;5052295;28;20041;-78
2022/10/13 01:49:34;;;;;;;15.52;10.15;;;10.60;99.90;;;;;;5051596;28;20083;-78
2022/10/13 01:52:12;;;;;;;18.45;11.85;;;10.60;99.90;;;;;;5051681;28;20131;-78
2022/10/13 01:54:37;;;;;;;19.00;10.73;;;10.60;99.90;;;;;;5051978;28;20060;-78
2022/10/13 01:57:03;;;;;;;14.05;10.10;;;10.60;99.90;;;;;;5051725;28;20388;-79
2022/10/13 01:59:34;;;;;;;13.13;9.55;;;10.50;99.90;;;;;;5052222;28;20470;-78
2022/10/13 02:02:15;;;;;;;15.35;9.73;;;10.50;99.90;;;;;;5051714;28;20072;-78
2022/10/13 02:05:12;;;;;;;12.32;9.27;;;10.50;99.90;;;;;;5086133;28;20110;-78
2022/10/13 02:07:58;;;;;;;13.82;10.10;;;10.50;99.90;;;;;;5055228;28;20479;-78
2022/10/13 02:10:55;;;;;;;19.73;11.75;;;10.50;99.90;;;;;;5055211;28;20037;-78
2022/10/13 02:13:23;;;;;;;18.50;11.65;;;10.50;99.90;;;;;;5055205;28;20048;-79
2022/10/13 02:15:53;;;;;;;18.38;10.45;;;10.50;99.90;;;;;;5055119;28;20053;-78
2022/10/13 02:18:22;;;;;;;15.75;11.10;;;10.50;99.90;;;;;;5055049;28;20119;-78
2022/10/13 02:20:49;;;;;;;19.25;10.93;;;10.50;99.90;;;;;;5055646;28;20118;-78
2022/10/13 02:23:17;;;;;;;12.20;9.20;;;10.50;99.90;;;;;;5055109;28;20399;-77
2022/10/13 02:25:44;;;;;;;19.42;10.60;;;10.50;99.90;;;;;;5055436;28;20080;-78
2022/10/13 02:28:13;;;;;;;16.30;9.20;;;10.50;99.90;;;;;;5055241;28;20045;-78
2022/10/13 02:30:40;;;;;;;18.27;10.52;;;10.50;99.90;;;;;;5055010;28;20053;-79
2022/10/13 02:33:07;;;;;;;16.42;12.15;;;10.50;99.90;;;;;;5054772;28;20045;-79
2022/10/13 02:35:33;;;;;;;15.18;10.02;;;10.50;99.90;;;;;;5054623;28;20110;-79
2022/10/13 02:37:59;;;;;;;18.02;11.43;;;10.50;99.90;;;;;;5054757;28;20095;-79
2022/10/13 02:40:25;;;;;;;18.83;11.27;;;10.50;99.90;;;;;;5054509;28;20080;-79
2022/10/13 02:42:51;;;;;;;17.80;11.77;;;10.50;99.90;;;;;;5054966;28;20041;-79
2022/10/13 02:45:18;;;;;;;18.73;10.82;;;10.50;99.90;;;;;;5087621;28;20420;-78
2022/10/13 02:47:43;;;;;;;20.60;12.43;;;10.40;99.90;;;;;;5054500;28;20056;-79
2022/10/13 02:50:09;;;;;;;18.65;11.55;;;10.40;99.90;;;;;;5053035;28;20045;-79
2022/10/13 02:52:35;;;;;;;14.23;10.52;;;10.40;99.90;;;;;;5054478;28;20079;-79
2022/10/13 02:55:01;;;;;;;15.32;10.57;;;10.40;99.90;;;;;;5053977;28;20055;-79
2022/10/13 02:57:26;;;;;;;21.05;12.02;;;10.40;99.90;;;;;;5054673;28;20135;-79
2022/10/13 02:59:52;;;;;;;18.38;10.45;;;10.40;99.90;;;;;;5054421;28;20045;-79
2022/10/13 03:02:18;;;;;;;16.60;11.20;;;10.40;99.90;;;;;;5054270;28;20122;-79
2022/10/13 03:04:44;;;;;;;16.77;10.50;;;10.40;99.90;;;;;;5070175;28;20044;-78
2022/10/13 03:07:10;;;;;;;12.98;8.60;;;10.40;99.90;;;;;;5054710;28;20041;-78
2022/10/13 03:09:36;;;;;;;17.80;10.88;;;10.40;99.90;;;;;;5054075;28;20052;-78
2022/10/13 03:12:01;;;;;;;14.02;10.07;;;10.40;99.90;;;;;;5054028;28;20045;-78
2022/10/13 03:14:27;;;;;;;18.00;10.65;;;10.40;99.90;;;;;;5054553;28;20045;-78
2022/10/13 03:16:52;;;;;;;13.15;10.02;;;10.40;99.90;;;;;;5053191;28;20083;-79
2022/10/13 03:19:18;;;;;;;21.02;11.65;;;10.40;99.90;;;;;;5054339;28;20579;-78
2022/10/13 03:21:44;;;;;;;19.45;11.20;;;10.50;99.90;;;;;;5053847;28;20186;-78
2022/10/13 03:24:10;;;;;;;18.13;11.68;;;10.40;99.90;;;;;;5053776;28;20045;-78
2022/10/13 03:26:35;;;;;;;16.63;10.80;;;10.40;99.90;;;;;;5052793;28;20048;-78
2022/10/13 03:29:02;;;;;;;20.05;11.20;;;10.50;99.90;;;;;;5053679;28;20138;-79
2022/10/13 03:31:28;;;;;;;13.32;9.65;;;10.50;99.90;;;;;;5054139;28;20210;-78
2022/10/13 03:33:53;;;;;;;15.15;10.63;;;10.50;99.90;;;;;;5054123;28;20506;-79
2022/10/13 03:36:19;;;;;;;19.17;11.25;;;10.50;99.90;;;;;;5053697;28;20087;-78
2022/10/13 03:38:45;;;;;;;16.25;9.73;;;10.60;99.90;;;;;;5053165;28;20549;-79
2022/10/13 03:41:13;;;;;;;12.82;10.00;;;10.60;99.90;;;;;;5053469;28;20041;-79
2022/10/13 03:43:40;;;;;;;14.48;11.20;;;10.50;99.90;;;;;;5053483;28;20049;-79
2022/10/13 03:46:06;;;;;;;19.35;10.23;;;10.50;99.90;;;;;;5052293;28;20048;-78
2022/10/13 03:48:33;;;;;;;14.75;9.43;;;10.60;99.90;;;;;;5053367;28;20045;-79
2022/10/13 03:50:59;;;;;;;16.60;10.88;;;10.60;99.90;;;;;;5053343;28;20049;-78
2022/10/13 03:53:25;;;;;;;16.63;12.65;;;10.60;99.90;;;;;;5053364;28;20048;-79
2022/10/13 03:55:53;;;;;;;16.83;11.98;;;10.60;99.90;;;;;;5053903;28;20057;-79
2022/10/13 03:58:19;;;;;;;17.77;10.52;;;10.60;99.90;;;;;;5053500;28;20107;-79
2022/10/13 04:00:45;;;;;;;21.15;12.52;;;10.70;99.90;;;;;;5052871;28;20528;-78
2022/10/13 04:03:11;;;;;;;20.15;11.23;;;10.70;99.90;;;;;;5051895;28;20048;-78
2022/10/13 04:05:37;;;;;;;18.30;12.50;;;10.70;99.90;;;;;;5051756;28;20487;-78
2022/10/13 04:08:03;;;;;;;14.93;9.45;;;10.70;99.90;;;;;;5068720;28;20049;-78
2022/10/13 04:10:29;;;;;;;17.95;11.23;;;10.70;99.90;;;;;;5052915;28;20041;-78
2022/10/13 04:12:55;;;;;;;10.93;8.90;;;10.70;99.90;;;;;;5053005;28;20041;-79
2022/10/13 04:15:20;;;;;;;17.88;11.95;;;10.70;99.90;;;;;;5053451;28;20064;-79
2022/10/13 04:17:46;;;;;;;18.70;11.15;;;10.70;99.90;;;;;;5052704;28;20094;-78
2022/10/13 04:20:12;;;;;;;12.05;8.20;;;10.70;99.90;;;;;;5053209;28;20091;-80
2022/10/13 04:22:38;;;;;;;17.98;11.02;;;10.70;99.90;;;;;;5053137;28;20483;-79
2022/10/13 04:25:05;;;;;;;19.67;12.00;;;10.70;99.90;;;;;;5053546;28;20086;-79
2022/10/13 04:27:31;;;;;;;15.25;11.35;;;10.70;99.90;;;;;;5052785;28;20049;-80
2022/10/13 04:29:57;;;;;;;14.15;10.85;;;10.70;99.90;;;;;;5053120;28;20052;-80
2022/10/13 04:32:23;;;;;;;18.88;12.30;;;10.80;99.90;;;;;;5053071;28;20139;-78
2022/10/13 04:34:49;;;;;;;17.38;12.27;;;10.70;99.90;;;;;;5052603;28;20076;-78
2022/10/13 04:37:15;;;;;;;20.80;11.35;;;10.70;99.90;;;;;;5052586;28;20082;-77
2022/10/13 04:39:40;;;;;;;12.13;9.05;;;10.80;99.90;;;;;;5052479;28;20055;-78
2022/10/13 04:42:06;;;;;;;18.30;11.77;;;10.80;99.90;;;;;;5085117;28;20383;-78
2022/10/13 04:44:32;;;;;;;19.33;13.55;;;10.80;99.90;;;;;;5052484;28;20056;-78
2022/10/13 04:46:59;;;;;;;24.42;12.23;;;10.80;99.90;;;;;;5051418;28;20060;-78
2022/10/13 04:49:25;;;;;;;15.10;10.32;;;10.80;99.90;;;;;;5052543;28;20455;-78
2022/10/13 04:51:51;;;;;;;18.15;12.45;;;10.80;99.90;;;;;;5052686;28;20045;-81
2022/10/13 04:54:17;;;;;;;15.70;11.85;;;10.80;99.90;;;;;;5052408;28;20069;-78
2022/10/13 04:56:44;;;;;;;18.63;11.93;;;10.80;99.90;;;;;;5052559;28;20049;-78
2022/10/13 04:59:10;;;;;;;16.38;12.20;;;10.80;99.90;;;;;;5052551;28;20135;-78
2022/10/13 05:01:35;;;;;;;22.67;12.52;;;10.80;99.90;;;;;;5052620;28;20451;-81
2022/10/13 05:04:03;;;;;;;18.60;11.55;;;10.80;99.90;;;;;;5052138;28;20075;-78
2022/10/13 05:06:32;;;;;;;21.13;13.45;;;10.80;99.90;;;;;;5052174;28;20048;-79
2022/10/13 05:08:58;;;;;;;19.48;12.55;;;10.80;99.90;;;;;;5052243;28;20045;-78
2022/10/13 05:11:28;;;;;;;21.27;14.93;;;10.80;99.90;;;;;;5052373;28;20082;-77
2022/10/13 05:13:54;;;;;;;20.50;13.63;;;10.80;99.90;;;;;;5052835;28;20053;-77
2022/10/13 05:16:21;;;;;;;20.75;14.93;;;10.80;99.90;;;;;;5052602;28;20471;-77
2022/10/13 05:18:48;;;;;;;19.27;13.45;;;10.70;99.90;;;;;;5052316;28;20130;-77
2022/10/13 05:21:16;;;;;;;18.77;12.63;;;10.70;99.90;;;;;;5053077;28;20045;-77
2022/10/13 05:23:42;;;;;;;18.33;14.32;;;10.80;99.90;;;;;;5052910;28;20341;-80
2022/10/13 05:26:13;;;;;;;19.02;14.07;;;10.70;99.90;;;;;;5052161;28;20051;-77
2022/10/13 05:28:39;;;;;;;21.50;15.57;;;10.70;99.90;;;;;;5051218;28;20608;-76
2022/10/13 05:31:20;;;;;;;26.02;15.60;;;10.70;99.90;;;;;;5052048;28;20079;-77
2022/10/13 05:33:47;;;;;;;21.40;13.48;;;10.70;99.90;;;;;;5052040;28;20052;-76
2022/10/13 05:36:21;;;;;;;23.65;14.88;;;10.70;99.90;;;;;;5051781;28;20048;-78
2022/10/13 05:38:55;;;;;;;27.95;15.35;;;10.70;99.90;;;;;;5052303;28;20431;-78
2022/10/13 05:41:21;;;;;;;19.25;13.95;;;10.70;99.90;;;;;;5055931;28;20049;-79
2022/10/13 05:43:48;;;;;;;21.35;14.73;;;10.70;99.90;;;;;;5055808;28;20056;-80
2022/10/13 05:46:14;;;;;;;18.55;13.52;;;10.70;99.90;;;;;;5055044;28;20049;-76
2022/10/13 05:48:40;;;;;;;19.13;14.48;;;10.70;99.90;;;;;;5055634;28;20064;-80
2022/10/13 05:51:24;;;;;;;23.73;15.85;;;10.70;99.90;;;;;;5055411;28;20068;-78
2022/10/13 05:54:14;;;;;;;22.20;16.80;;;10.70;99.90;;;;;;5055821;28;20110;-77
2022/10/13 05:56:50;;;;;;;23.83;16.70;;;10.70;99.90;;;;;;5056006;28;20064;-78
2022/10/13 05:59:18;;;;;;;29.48;16.25;;;10.70;99.90;;;;;;5055476;28;20048;-77
2022/10/13 06:01:45;;;;;;;27.00;15.77;;;10.80;99.90;;;;;;5055406;28;20045;-78
2022/10/13 06:04:17;;;;;;;24.20;16.58;;;10.70;99.90;;;;;;5055256;28;20482;-81
2022/10/13 06:06:43;;;;;;;29.13;18.13;;;10.80;99.90;;;;;;5054751;28;20136;-78
2022/10/13 06:09:09;;;;;;;26.17;18.58;;;10.80;99.90;;;;;;5055706;28;20080;-82
2022/10/13 06:11:35;;;;;;;20.33;16.65;;;10.80;99.90;;;;;;5055083;28;20048;-79
2022/10/13 06:14:00;;;;;;;29.40;16.23;;;10.70;99.90;;;;;;5055372;28;20041;-78
2022/10/13 06:16:26;;;;;;;26.05;17.75;;;10.80;99.90;;;;;;5054987;28;20072;-81
2022/10/13 06:18:52;;;;;;;24.45;16.55;;;10.80;99.90;;;;;;5055093;28;20041;-82
2022/10/13 06:21:17;;;;;;;24.23;18.52;;;10.80;99.90;;;;;;5055348;28;20140;-78
2022/10/13 06:23:43;;;;;;;24.35;17.67;;;10.80;99.90;;;;;;5054298;28;20059;-79
2022/10/13 06:26:09;;;;;;;23.05;17.98;;;10.90;99.90;;;;;;5055155;28;20044;-78
2022/10/13 06:28:34;;;;;;;27.58;16.45;;;10.90;99.90;;;;;;5054830;28;20122;-77
2022/10/13 06:31:06;;;;;;;26.90;18.73;;;10.90;99.90;;;;;;5053697;28;20123;-76
2022/10/13 06:33:32;;;;;;;23.35;17.27;;;10.90;99.90;;;;;;5055254;28;20084;-79
2022/10/13 06:36:03;;;;;;;24.50;16.55;;;10.90;99.90;;;;;;5054714;28;20065;-76
2022/10/13 06:38:29;;;;;;;26.77;17.50;;;10.90;99.90;;;;;;5054666;28;20041;-80
2022/10/13 06:41:02;;;;;;;28.90;18.02;;;11.00;99.90;;;;;;5054668;28;20059;-80
2022/10/13 06:43:27;;;;;;;26.15;17.58;;;11.00;99.90;;;;;;5054446;28;20037;-83
2022/10/13 06:45:57;;;;;;;23.00;17.15;;;11.00;99.90;;;;;;5054545;28;20059;-80
2022/10/13 06:48:23;;;;;;;22.73;16.52;;;11.00;99.90;;;;;;5054619;28;20055;-82
2022/10/13 06:50:49;;;;;;;22.08;16.98;;;11.00;99.90;;;;;;5053493;28;20445;-78
2022/10/13 06:53:15;;;;;;;22.40;16.92;;;11.10;99.90;;;;;;5054433;28;20044;-81
2022/10/13 06:55:42;;;;;;;20.45;15.20;;;11.10;99.90;;;;;;5054758;28;20057;-78
2022/10/13 06:58:09;;;;;;;24.92;16.42;;;11.10;99.90;;;;;;5054343;28;20045;-78
2022/10/13 07:00:35;;;;;;;24.33;17.17;;;11.20;99.90;;;;;;5054514;28;20049;-79
2022/10/13 07:03:00;;;;;;;25.20;16.50;;;11.20;99.90;;;;;;5054394;28;20047;-80
2022/10/13 07:05:26;;;;;;;22.38;15.77;;;11.20;99.90;;;;;;5054116;28;20045;-79
2022/10/13 07:07:52;;;;;;;23.73;16.00;;;11.20;99.90;;;;;;5054144;28;20421;-81
2022/10/13 07:10:18;;;;;;;21.42;15.68;;;11.30;99.90;;;;;;5054347;28;20045;-79
2022/10/13 07:12:44;;;;;;;23.17;15.65;;;11.30;99.90;;;;;;5054511;28;20056;-78
2022/10/13 07:15:10;;;;;;;21.13;15.95;;;11.30;99.90;;;;;;5054282;28;20049;-74
2022/10/13 07:17:36;;;;;;;20.55;14.77;;;11.40;99.90;;;;;;5053985;28;20431;-79
2022/10/13 07:20:03;;;;;;;27.92;15.55;;;11.40;99.90;;;;;;5053977;28;20048;-77
2022/10/13 07:22:30;;;;;;;26.23;16.88;;;11.40;99.90;;;;;;5053996;28;20124;-79
2022/10/13 07:24:55;;;;;;;22.45;16.25;;;11.50;99.90;;;;;;5054411;28;20076;-80
2022/10/13 07:27:21;;;;;;;21.65;16.83;;;11.50;99.90;;;;;;5055475;28;20047;-83
2022/10/13 07:29:47;;;;;;;21.00;15.60;;;11.50;99.90;;;;;;5054875;28;20048;-80
2022/10/13 07:32:12;;;;;;;23.13;14.90;;;11.50;99.90;;;;;;5054512;28;20439;-82
2022/10/13 07:34:38;;;;;;;23.10;16.25;;;11.50;99.90;;;;;;5053353;28;20052;-76
2022/10/13 07:37:04;;;;;;;18.98;14.38;;;11.40;99.90;;;;;;5053052;28;20045;-80
2022/10/13 07:39:30;;;;;;;24.33;15.82;;;11.50;99.90;;;;;;5053633;28;20371;-78
2022/10/13 07:41:55;;;;;;;25.45;16.10;;;11.50;99.90;;;;;;5053894;28;20123;-78
2022/10/13 07:44:21;;;;;;;23.20;14.82;;;11.50;99.90;;;;;;5054117;28;20049;-78
2022/10/13 07:46:47;;;;;;;22.08;16.50;;;11.50;99.90;;;;;;5053854;28;20478;-79
2022/10/13 07:49:12;;;;;;;25.65;16.27;;;11.70;99.90;;;;;;5053247;28;20043;-80
2022/10/13 07:51:38;;;;;;;25.45;17.33;;;11.80;99.90;;;;;;5053421;28;20052;-78
2022/10/13 07:54:04;;;;;;;21.65;15.80;;;11.90;99.90;;;;;;5053038;28;20395;-77
2022/10/13 07:56:29;;;;;;;21.60;15.52;;;11.90;99.90;;;;;;5053639;28;20156;-79
2022/10/13 07:58:55;;;;;;;23.13;15.05;;;12.00;99.90;;;;;;5053883;28;20049;-78
2022/10/13 08:01:21;;;;;;;19.27;14.18;;;12.00;99.90;;;;;;5053646;28;20124;-78
2022/10/13 08:03:47;;;;;;;25.52;14.07;;;12.00;99.90;;;;;;5052005;28;20048;-78
2022/10/13 08:06:13;;;;;;;22.60;14.18;;;12.10;99.90;;;;;;5052122;28;20124;-80
2022/10/13 08:08:39;;;;;;;22.98;13.88;;;12.20;99.90;;;;;;5053161;28;20052;-77
2022/10/13 08:11:08;;;;;;;25.40;15.02;;;12.30;99.90;;;;;;5053328;28;20124;-78
2022/10/13 08:13:34;;;;;;;24.77;14.48;;;12.40;99.90;;;;;;5052964;28;20083;-77
2022/10/13 08:16:00;;;;;;;22.70;14.38;;;12.40;99.90;;;;;;5053039;28;20049;-78
2022/10/13 08:18:26;;;;;;;22.23;14.13;;;12.50;99.90;;;;;;5052884;28;20437;-78
2022/10/13 08:20:52;;;;;;;22.58;14.52;;;12.60;99.90;;;;;;5052958;28;20064;-81
2022/10/13 08:23:18;;;;;;;20.13;13.68;;;12.60;99.90;;;;;;5053175;28;20045;-79
2022/10/13 08:25:44;;;;;;;27.15;16.67;;;12.70;99.90;;;;;;5052775;28;20154;-78
2022/10/13 08:28:22;;;;;;;18.63;13.73;;;12.70;99.90;;;;;;5052877;28;20159;-78
2022/10/13 08:30:49;;;;;;;23.90;14.77;;;12.80;99.90;;;;;;5052691;28;20052;-79
2022/10/13 08:33:15;;;;;;;21.33;14.38;;;12.80;99.90;;;;;;5052666;28;20049;-78
2022/10/13 08:35:43;;;;;;;20.85;13.82;;;12.80;99.90;;;;;;5052759;28;20067;-74
2022/10/13 08:38:09;;;;;;;21.65;13.25;;;12.80;99.90;;;;;;5053195;28;20127;-80
2022/10/13 08:40:37;;;;;;;20.27;13.93;;;12.80;99.90;;;;;;5053268;28;20083;-80
2022/10/13 08:43:13;;;;;;;23.13;13.82;;;12.90;99.90;;;;;;5052951;28;20131;-80
2022/10/13 08:45:39;;;;;;;20.70;13.50;;;12.90;99.90;;;;;;5053020;28;20056;-80
2022/10/13 08:48:23;;;;;;;20.92;14.50;;;13.00;99.90;;;;;;5052664;28;20122;-80
2022/10/13 08:50:53;;;;;;;23.90;15.35;;;13.00;99.90;;;;;;5052709;28;20045;-80
2022/10/13 08:53:40;;;;;;;21.00;14.68;;;13.00;99.90;;;;;;5053123;28;20055;-80
2022/10/13 08:56:19;;;;;;;16.75;14.88;;;13.00;99.90;;;;;;5053302;28;20053;-81
2022/10/13 08:58:48;;;;;;;21.35;14.80;;;13.10;99.90;;;;;;5052843;28;20047;-81
2022/10/13 09:01:22;;;;;;;19.95;15.10;;;13.10;99.90;;;;;;5052746;28;20044;-82
2022/10/13 09:03:54;;;;;;;22.10;14.98;;;13.20;99.90;;;;;;5052841;28;20135;-81
2022/10/13 09:06:30;;;;;;;23.60;14.82;;;13.10;99.90;;;;;;5052802;28;20053;-79
2022/10/13 09:09:10;;;;;;;23.00;15.45;;;13.20;99.90;;;;;;5052561;28;20052;-80
2022/10/13 09:11:42;;;;;;;24.95;18.85;;;13.20;99.90;;;;;;5052211;28;20490;-78
2022/10/13 09:14:11;;;;;;;22.92;15.30;;;13.20;99.90;;;;;;5051535;28;20501;-77
2022/10/13 09:16:40;;;;;;;26.35;15.23;;;13.20;99.90;;;;;;5051486;28;20048;-83
2022/10/13 09:19:22;;;;;;;20.90;15.15;;;13.30;99.90;;;;;;5051123;28;20052;-84
2022/10/13 09:21:57;;;;;;;24.08;15.43;;;13.30;99.90;;;;;;5084986;28;20118;-84
2022/10/13 09:24:24;;;;;;;19.23;15.68;;;13.40;99.90;;;;;;5051626;28;20088;-85
2022/10/13 09:27:14;;;;;;;17.95;14.77;;;13.50;99.90;;;;;;5051456;28;20120;-83
2022/10/13 09:29:41;;;;;;;24.38;15.63;;;13.50;99.90;;;;;;5052425;28;20072;-84
2022/10/13 09:32:24;;;;;;;24.63;15.77;;;13.50;99.90;;;;;;5084832;28;20053;-83
2022/10/13 09:34:51;;;;;;;21.58;15.50;;;13.60;99.90;;;;;;5051822;28;20040;-83
2022/10/13 09:37:19;;;;;;;28.33;16.65;;;13.60;99.90;;;;;;5051635;28;20061;-84
2022/10/13 09:39:44;;;;;;;27.15;17.40;;;13.70;99.90;;;;;;5050957;28;20040;-84
2022/10/13 09:42:21;;;;;;;22.75;15.35;;;13.70;99.90;;;;;;5051036;28;20056;-89
2022/10/13 09:44:56;;;;;;;28.00;16.48;;;13.70;99.90;;;;;;5051159;28;20076;-89
2022/10/13 09:47:21;;;;;;;23.15;17.42;;;13.80;99.90;;;;;;5051366;28;20044;-87
2022/10/13 09:50:14;;;;;;;24.38;15.90;;;13.80;99.90;;;;;;5034711;28;20049;-88
2022/10/13 09:52:41;;;;;;;22.75;16.05;;;13.90;99.90;;;;;;5051055;28;20506;-87
2022/10/13 09:55:30;;;;;;;29.45;18.50;;;13.90;99.90;;;;;;5067441;28;20117;-88
2022/10/13 09:58:03;;;;;;;26.42;18.20;;;14.00;99.90;;;;;;5084650;28;20071;-87
2022/10/13 10:00:29;;;;;;;24.23;16.50;;;14.10;99.90;;;;;;5085284;28;20387;-86
2022/10/13 10:03:26;;;;;;;25.13;16.58;;;14.10;99.90;;;;;;5034378;28;20048;-82
2022/10/13 10:05:55;;;;;;;23.88;15.48;;;14.00;99.90;;;;;;5052132;28;20049;-84
2022/10/13 10:08:45;;;;;;;23.60;15.02;;;14.00;99.90;;;;;;5051594;28;20500;-80
2022/10/13 10:11:17;;;;;;;24.20;15.88;;;13.90;99.90;;;;;;5051519;28;20041;-79
2022/10/13 10:13:43;;;;;;;30.25;18.20;;;13.90;99.90;;;;;;5051390;28;20504;-82
2022/10/13 10:16:20;;;;;;;21.90;16.27;;;13.90;99.90;;;;;;5051801;28;20055;-77
2022/10/13 10:19:06;;;;;;;20.90;15.18;;;13.80;99.90;;;;;;5051886;28;20045;-79
2022/10/13 10:22:08;;;;;;;20.83;14.38;;;13.90;99.90;;;;;;5051968;28;20051;-82
2022/10/13 10:24:54;;;;;;;20.70;13.98;;;13.90;99.90;;;;;;5052181;28;20049;-79
2022/10/13 10:27:45;;;;;;;17.83;13.00;;;13.90;99.90;;;;;;5055305;28;20053;-78
2022/10/13 10:30:16;;;;;;;19.30;14.95;;;13.90;99.90;;;;;;5027094;28;20056;-80
2022/10/13 10:33:01;;;;;;;18.08;13.02;;;14.00;99.90;;;;;;5055464;28;20044;-80
2022/10/13 10:35:57;;;;;;;23.48;14.60;;;13.90;99.90;;;;;;5055826;28;20056;-78
2022/10/13 10:39:20;;;;;;;17.88;13.48;;;14.00;99.90;;;;;;5056640;28;20033;-80
2022/10/13 10:42:01;;;;;;;21.17;14.82;;;14.00;99.90;;;;;;4993083;28;20124;-80
2022/10/13 10:44:32;;;;;;;19.27;14.32;;;14.00;99.90;;;;;;5054747;28;20052;-79
2022/10/13 10:47:03;;;;;;;19.50;15.23;;;14.00;99.90;;;;;;5053922;28;20123;-79
2022/10/13 10:49:34;;;;;;;20.55;14.52;;;14.00;99.90;;;;;;5054604;28;20079;-76
2022/10/13 10:52:05;;;;;;;19.33;14.38;;;14.10;99.90;;;;;;5055101;28;20127;-78
2022/10/13 10:54:44;;;;;;;23.20;15.23;;;14.10;99.90;;;;;;5054332;28;20056;-79
2022/10/13 10:57:25;;;;;;;20.00;15.40;;;14.10;99.90;;;;;;5054816;28;20052;-78
2022/10/13 11:00:08;;;;;;;21.55;14.05;;;14.10;99.90;;;;;;5054409;28;20554;-76
2022/10/13 11:02:54;;;;;;;21.63;15.55;;;14.10;99.90;;;;;;5054388;28;20056;-80
2022/10/13 11:05:20;;;;;;;20.58;14.60;;;14.10;99.90;;;;;;5054355;28;20056;-78
2022/10/13 11:07:46;;;;;;;22.40;14.93;;;14.10;99.90;;;;;;5054154;28;20045;-82
2022/10/13 11:10:12;;;;;;;21.88;15.52;;;14.10;99.90;;;;;;5053973;28;20488;-78
2022/10/13 11:12:49;;;;;;;20.83;15.10;;;14.10;99.90;;;;;;5054027;28;20049;-81
2022/10/13 11:15:21;;;;;;;22.73;17.58;;;14.00;99.90;;;;;;5054142;28;20056;-79
2022/10/13 11:17:47;;;;;;;21.45;15.77;;;14.10;99.90;;;;;;5052796;28;20049;-78
2022/10/13 11:20:19;;;;;;;22.55;16.80;;;14.10;99.90;;;;;;5053878;28;20102;-80
2022/10/13 11:22:59;;;;;;;18.85;15.25;;;14.20;99.90;;;;;;5053659;28;20087;-77
2022/10/13 11:25:34;;;;;;;22.45;15.23;;;14.20;99.90;;;;;;5053488;28;20420;-79
2022/10/13 11:28:05;;;;;;;27.02;15.25;;;14.20;99.90;;;;;;5053921;28;20048;-77
2022/10/13 11:30:43;;;;;;;22.17;15.43;;;14.20;99.90;;;;;;5054022;28;20071;-80
2022/10/13 11:33:37;;;;;;;22.15;16.65;;;14.20;99.90;;;;;;5053639;28;20056;-77
2022/10/13 11:36:21;;;;;;;;;;;14.20;99.90;;;;;;5054006;28;20072;-80
2022/10/13 11:38:53;;;;;;;21.30;16.27;;;14.20;99.90;;;;;;5053011;28;19920;-78
2022/10/13 11:41:29;;;;;;;20.33;16.17;;;14.30;99.90;;;;;;5069587;28;20060;-81
2022/10/13 11:44:20;;;;;;;22.48;15.57;;;14.30;99.90;;;;;;5053754;28;20041;-79
2022/10/13 11:47:04;;;;;;;21.33;16.27;;;14.30;99.90;;;;;;5053751;28;20049;-79
2022/10/13 11:49:30;;;;;;;27.88;16.25;;;14.30;99.90;;;;;;5053555;28;20040;-78
2022/10/13 11:52:02;;;;;;;24.13;15.90;;;14.40;99.90;;;;;;5053758;28;20120;-78
2022/10/13 11:55:03;;;;;;;21.75;16.05;;;14.40;99.90;;;;;;5053252;28;20049;-79
2022/10/13 11:57:31;;;;;;;24.80;17.08;;;14.50;99.90;;;;;;5053416;28;20049;-79
2022/10/13 11:59:57;;;;;;;27.50;17.35;;;14.60;99.90;;;;;;5051763;28;20134;-81
2022/10/13 12:02:26;;;;;;;26.00;17.00;;;14.70;99.90;;;;;;5053245;28;20517;-79
2022/10/13 12:05:17;;;;;;;25.55;15.60;;;14.80;99.90;;;;;;5053882;28;20041;-80
2022/10/13 12:07:47;;;;;;;24.15;16.50;;;14.90;99.90;;;;;;5053679;28;20111;-81
2022/10/13 12:10:31;;;;;;;26.40;18.42;;;14.90;99.90;;;;;;5053277;28;20477;-79
2022/10/13 12:12:58;;;;;;;25.40;16.88;;;14.90;99.90;;;;;;5052861;28;20057;-80
2022/10/13 12:15:36;;;;;;;28.08;18.15;;;15.00;99.90;;;;;;5052857;28;20049;-80
2022/10/13 12:18:17;;;;;;;22.63;17.60;;;15.00;99.90;;;;;;5051883;28;20049;-80
2022/10/13 12:20:51;;;;;;;23.20;15.80;;;15.10;99.90;;;;;;5053156;28;20129;-79
2022/10/13 12:23:17;;;;;;;24.60;15.57;;;15.20;99.90;;;;;;5053262;28;20487;-78
2022/10/13 12:25:46;;;;;;;21.40;15.65;;;15.10;99.90;;;;;;5052727;28;20044;-80
2022/10/13 12:28:18;;;;;;;23.15;16.02;;;15.20;99.90;;;;;;5052477;28;20053;-81
2022/10/13 12:30:54;;;;;;;24.30;16.30;;;15.10;99.90;;;;;;5053336;28;20159;-76
2022/10/13 12:33:34;;;;;;;27.35;16.40;;;15.10;99.90;;;;;;5052852;28;20127;-78
2022/10/13 12:36:33;;;;;;;22.23;16.23;;;15.10;99.90;;;;;;5053105;28;20045;-78
2022/10/13 12:39:05;;;;;;;20.10;15.98;;;15.00;99.90;;;;;;5019473;28;20127;-78
2022/10/13 12:41:36;;;;;;;24.55;15.20;;;15.00;99.90;;;;;;5053900;28;20118;-78
2022/10/13 12:44:03;;;;;;;20.17;15.38;;;15.00;99.90;;;;;;5053171;28;20041;-79
2022/10/13 12:46:36;;;;;;;21.30;15.27;;;15.00;99.90;;;;;;5085801;28;20478;-78